sensor_id;sensor_type;location;lat;lon;timestamp;pressure;altitude;pressure_sealevel;temperature;humidity
76973;BME280;65907;53.640;10.050;2023-07-20T00:02:20;100664.53;;;27.27;37.64
76973;BME280;65907;53.640;10.050;2023-07-20T00:04:47;100663.03;;;27.25;37.85
76973;BME280;65907;53.640;10.050;2023-07-20T00:07:12;100662.03;;;27.26;38.01
76973;BME280;65907;53.640;10.050;2023-07-20T00:09:38;100664.66;;;27.34;37.67
76973;BME280;65907;53.640;10.050;2023-07-20T00:12:03;100663.38;;;27.22;37.84
76973;BME280;65907;53.640;10.050;2023-07-20T00:14:29;100663.03;;;27.25;37.84
76973;BME280;65907;53.640;10.050;2023-07-20T00:16:55;100654.81;;;27.19;37.84
76973;BME280;65907;53.640;10.050;2023-07-20T00:19:27;100652.19;;;27.19;37.85
76973;BME280;65907;53.640;10.050;2023-07-20T00:21:53;100645.41;;;27.17;38.02
76973;BME280;65907;53.640;10.050;2023-07-20T00:24:18;100640.13;;;27.17;37.97
76973;BME280;65907;53.640;10.050;2023-07-20T00:26:46;100638.50;;;27.16;37.96
76973;BME280;65907;53.640;10.050;2023-07-20T00:29:14;100645.91;;;27.20;37.89
76973;BME280;65907;53.640;10.050;2023-07-20T00:31:39;100640.94;;;27.26;37.86
76973;BME280;65907;53.640;10.050;2023-07-20T00:34:05;100642.13;;;27.15;38.03
76973;BME280;65907;53.640;10.050;2023-07-20T00:36:30;100641.31;;;27.14;38.15
76973;BME280;65907;53.640;10.050;2023-07-20T00:38:56;100639.19;;;27.10;38.24
76973;BME280;65907;53.640;10.050;2023-07-20T00:41:23;100643.13;;;27.14;38.08
76973;BME280;65907;53.640;10.050;2023-07-20T00:43:49;100638.50;;;27.16;37.80
76973;BME280;65907;53.640;10.050;2023-07-20T00:46:15;100640.97;;;27.17;37.86
76973;BME280;65907;53.640;10.050;2023-07-20T00:48:41;100637.66;;;27.24;37.73
76973;BME280;65907;53.640;10.050;2023-07-20T00:51:06;100639.00;;;27.19;37.79
76973;BME280;65907;53.640;10.050;2023-07-20T00:53:32;100630.59;;;27.16;37.87
76973;BME280;65907;53.640;10.050;2023-07-20T00:55:57;100630.28;;;27.11;38.09
76973;BME280;65907;53.640;10.050;2023-07-20T00:58:22;100629.94;;;27.14;37.91
76973;BME280;65907;53.640;10.050;2023-07-20T01:00:48;100628.94;;;27.15;37.98
76973;BME280;65907;53.640;10.050;2023-07-20T01:03:13;100632.41;;;27.15;37.86
76973;BME280;65907;53.640;10.050;2023-07-20T01:05:47;100629.56;;;27.25;37.68
76973;BME280;65907;53.640;10.050;2023-07-20T01:08:24;100625.31;;;27.16;37.86
76973;BME280;65907;53.640;10.050;2023-07-20T01:10:59;100635.22;;;27.14;37.97
76973;BME280;65907;53.640;10.050;2023-07-20T01:13:28;100630.28;;;27.11;37.93
76973;BME280;65907;53.640;10.050;2023-07-20T01:16:00;100637.34;;;27.18;37.93
76973;BME280;65907;53.640;10.050;2023-07-20T01:18:25;100628.59;;;27.18;38.03
76973;BME280;65907;53.640;10.050;2023-07-20T01:20:51;100638.34;;;27.09;37.96
76973;BME280;65907;53.640;10.050;2023-07-20T01:23:36;100642.81;;;27.09;37.94
76973;BME280;65907;53.640;10.050;2023-07-20T01:29:04;100635.56;;;27.11;37.99
76973;BME280;65907;53.640;10.050;2023-07-20T01:31:39;100632.22;;;27.17;37.75
76973;BME280;65907;53.640;10.050;2023-07-20T01:34:06;100627.78;;;27.17;37.85
76973;BME280;65907;53.640;10.050;2023-07-20T01:36:34;100629.94;;;27.14;37.81
76973;BME280;65907;53.640;10.050;2023-07-20T01:39:02;100640.78;;;27.19;37.67
76973;BME280;65907;53.640;10.050;2023-07-20T01:41:29;100632.88;;;27.19;37.67
76973;BME280;65907;53.640;10.050;2023-07-20T01:43:57;100632.75;;;27.12;37.81
76973;BME280;65907;53.640;10.050;2023-07-20T01:46:22;100634.22;;;27.15;37.75
76973;BME280;65907;53.640;10.050;2023-07-20T01:48:47;100634.22;;;27.15;37.73
76973;BME280;65907;53.640;10.050;2023-07-20T01:51:12;100637.16;;;27.20;37.68
76973;BME280;65907;53.640;10.050;2023-07-20T01:53:38;100640.28;;;27.24;37.57
76973;BME280;65907;53.640;10.050;2023-07-20T01:56:04;100639.00;;;27.19;37.69
76973;BME280;65907;53.640;10.050;2023-07-20T01:58:29;100632.41;;;27.15;37.76
76973;BME280;65907;53.640;10.050;2023-07-20T02:00:54;100639.19;;;27.10;37.70
76973;BME280;65907;53.640;10.050;2023-07-20T02:03:19;100635.50;;;27.19;37.68
76973;BME280;65907;53.640;10.050;2023-07-20T02:05:46;100639.34;;;27.16;37.50
76973;BME280;65907;53.640;10.050;2023-07-20T02:08:12;100628.63;;;27.10;37.92
76973;BME280;65907;53.640;10.050;2023-07-20T02:10:37;100628.94;;;27.15;37.75
76973;BME280;65907;53.640;10.050;2023-07-20T02:13:03;100625.66;;;27.13;37.93
76973;BME280;65907;53.640;10.050;2023-07-20T02:15:28;100622.66;;;27.16;37.85
76973;BME280;65907;53.640;10.050;2023-07-20T02:17:54;100625.84;;;27.11;37.56
76973;BME280;65907;53.640;10.050;2023-07-20T02:20:19;100623.66;;;27.15;37.60
76973;BME280;65907;53.640;10.050;2023-07-20T02:22:44;100635.56;;;27.11;38.03
76973;BME280;65907;53.640;10.050;2023-07-20T02:25:10;100628.78;;;27.16;37.78
76973;BME280;65907;53.640;10.050;2023-07-20T02:27:35;100637.03;;;27.13;37.58
76973;BME280;65907;53.640;10.050;2023-07-20T02:30:00;100634.22;;;27.15;37.74
76973;BME280;65907;53.640;10.050;2023-07-20T02:32:28;100628.94;;;27.15;37.64
76973;BME280;65907;53.640;10.050;2023-07-20T02:34:56;100642.34;;;27.05;37.84
76973;BME280;65907;53.640;10.050;2023-07-20T02:37:21;100638.63;;;27.23;37.67
76973;BME280;65907;53.640;10.050;2023-07-20T02:39:47;100642.00;;;27.08;37.79
76973;BME280;65907;53.640;10.050;2023-07-20T02:42:12;100636.41;;;27.11;37.83
76973;BME280;65907;53.640;10.050;2023-07-20T02:44:38;100635.41;;;27.04;38.30
76973;BME280;65907;53.640;10.050;2023-07-20T02:47:03;100631.41;;;27.16;37.57
76973;BME280;65907;53.640;10.050;2023-07-20T02:49:28;100633.91;;;27.10;37.76
76973;BME280;65907;53.640;10.050;2023-07-20T02:51:54;100640.69;;;27.04;37.95
76973;BME280;65907;53.640;10.050;2023-07-20T02:54:19;100638.84;;;27.13;37.81
76973;BME280;65907;53.640;10.050;2023-07-20T02:56:44;100636.75;;;27.00;38.09
76973;BME280;65907;53.640;10.050;2023-07-20T02:59:10;100635.06;;;27.07;37.69
76973;BME280;65907;53.640;10.050;2023-07-20T03:01:35;100633.97;;;27.01;37.82
76973;BME280;65907;53.640;10.050;2023-07-20T03:04:01;100630.13;;;27.12;37.86
76973;BME280;65907;53.640;10.050;2023-07-20T03:06:27;100624.84;;;27.12;37.66
76973;BME280;65907;53.640;10.050;2023-07-20T03:08:52;100632.88;;;27.19;37.77
76973;BME280;65907;53.640;10.050;2023-07-20T03:11:18;100637.69;;;27.15;37.64
76973;BME280;65907;53.640;10.050;2023-07-20T03:13:44;100643.31;;;27.04;38.07
76973;BME280;65907;53.640;10.050;2023-07-20T03:16:10;100640.34;;;27.07;37.69
76973;BME280;65907;53.640;10.050;2023-07-20T03:18:36;100638.19;;;27.11;37.70
76973;BME280;65907;53.640;10.050;2023-07-20T03:21:03;100643.31;;;27.04;37.83
76973;BME280;65907;53.640;10.050;2023-07-20T03:23:28;100643.31;;;27.12;37.77
76973;BME280;65907;53.640;10.050;2023-07-20T03:25:53;100639.84;;;27.12;37.53
76973;BME280;65907;53.640;10.050;2023-07-20T03:28:20;100650.09;;;26.98;38.03
76973;BME280;65907;53.640;10.050;2023-07-20T03:30:52;100646.81;;;27.04;37.55
76973;BME280;65907;53.640;10.050;2023-07-20T03:33:17;100649.75;;;27.10;37.60
76973;BME280;65907;53.640;10.050;2023-07-20T03:35:42;100647.47;;;26.98;38.14
76973;BME280;65907;53.640;10.050;2023-07-20T03:38:08;100646.50;;;26.99;37.96
76973;BME280;65907;53.640;10.050;2023-07-20T03:40:33;100638.75;;;26.98;37.98
76973;BME280;65907;53.640;10.050;2023-07-20T03:43:04;100638.53;;;27.08;37.57
76973;BME280;65907;53.640;10.050;2023-07-20T03:45:29;100638.53;;;27.08;37.63
76973;BME280;65907;53.640;10.050;2023-07-20T03:47:54;100635.06;;;27.07;37.79
76973;BME280;65907;53.640;10.050;2023-07-20T03:50:19;100643.38;;;26.96;37.90
76973;BME280;65907;53.640;10.050;2023-07-20T03:52:48;100646.00;;;26.96;38.07
76973;BME280;65907;53.640;10.050;2023-07-20T03:55:13;100645.81;;;27.05;37.81
76973;BME280;65907;53.640;10.050;2023-07-20T03:57:40;100641.19;;;27.08;37.72
76973;BME280;65907;53.640;10.050;2023-07-20T04:00:06;100645.81;;;27.05;37.80
76973;BME280;65907;53.640;10.050;2023-07-20T04:02:32;100656.88;;;27.01;37.93
76973;BME280;65907;53.640;10.050;2023-07-20T04:05:00;100655.53;;;27.05;37.81
76973;BME280;65907;53.640;10.050;2023-07-20T04:07:25;100657.81;;;27.08;37.51
76973;BME280;65907;53.640;10.050;2023-07-20T04:09:50;100669.38;;;27.07;37.69
76973;BME280;65907;53.640;10.050;2023-07-20T04:12:22;100671.56;;;27.03;37.89
76973;BME280;65907;53.640;10.050;2023-07-20T04:14:47;100676.69;;;26.97;37.87
76973;BME280;65907;53.640;10.050;2023-07-20T04:17:12;100678.81;;;26.93;38.28
76973;BME280;65907;53.640;10.050;2023-07-20T04:19:38;100674.66;;;27.07;37.83
76973;BME280;65907;53.640;10.050;2023-07-20T04:22:03;100675.03;;;26.96;38.10
76973;BME280;65907;53.640;10.050;2023-07-20T04:24:29;100679.63;;;27.02;37.87
76973;BME280;65907;53.640;10.050;2023-07-20T04:26:54;100685.41;;;27.05;37.79
76973;BME280;65907;53.640;10.050;2023-07-20T04:29:19;100679.81;;;27.00;37.90
76973;BME280;65907;53.640;10.050;2023-07-20T04:31:44;100681.47;;;27.01;37.81
76973;BME280;65907;53.640;10.050;2023-07-20T04:34:12;100680.59;;;27.09;37.62
76973;BME280;65907;53.640;10.050;2023-07-20T04:36:39;100681.47;;;27.01;37.75
76973;BME280;65907;53.640;10.050;2023-07-20T04:39:04;100678.28;;;27.06;37.88
76973;BME280;65907;53.640;10.050;2023-07-20T04:41:30;100679.31;;;26.97;37.84
76973;BME280;65907;53.640;10.050;2023-07-20T04:43:55;100686.88;;;27.00;37.87
76973;BME280;65907;53.640;10.050;2023-07-20T04:46:23;100679.28;;;27.05;37.58
76973;BME280;65907;53.640;10.050;2023-07-20T04:48:48;100681.06;;;27.13;37.85
76973;BME280;65907;53.640;10.050;2023-07-20T04:51:13;100687.03;;;27.07;37.61
76973;BME280;65907;53.640;10.050;2023-07-20T04:53:38;100685.41;;;27.05;37.80
76973;BME280;65907;53.640;10.050;2023-07-20T04:56:03;100681.28;;;27.03;37.84
76973;BME280;65907;53.640;10.050;2023-07-20T04:58:29;100684.25;;;27.00;37.87
76973;BME280;65907;53.640;10.050;2023-07-20T05:00:54;100689.19;;;27.03;37.74
76973;BME280;65907;53.640;10.050;2023-07-20T05:03:19;100684.75;;;26.95;38.05
76973;BME280;65907;53.640;10.050;2023-07-20T05:05:47;100694.00;;;26.99;37.89
76973;BME280;65907;53.640;10.050;2023-07-20T05:08:13;100693.66;;;26.94;38.01
76973;BME280;65907;53.640;10.050;2023-07-20T05:10:38;100694.97;;;26.98;37.87
76973;BME280;65907;53.640;10.050;2023-07-20T05:13:03;100690.53;;;26.99;37.89
76973;BME280;65907;53.640;10.050;2023-07-20T05:15:29;100694.84;;;26.91;38.13
76973;BME280;65907;53.640;10.050;2023-07-20T05:17:54;100699.94;;;26.93;38.00
76973;BME280;65907;53.640;10.050;2023-07-20T05:20:19;100696.81;;;26.89;38.17
76973;BME280;65907;53.640;10.050;2023-07-20T05:22:45;100695.13;;;27.05;37.78
76973;BME280;65907;53.640;10.050;2023-07-20T05:25:10;100695.16;;;26.97;38.10
76973;BME280;65907;53.640;10.050;2023-07-20T05:27:36;100696.63;;;26.99;37.99
76973;BME280;65907;53.640;10.050;2023-07-20T05:30:04;100705.84;;;26.95;38.08
76973;BME280;65907;53.640;10.050;2023-07-20T05:32:29;100697.59;;;26.98;38.00
76973;BME280;65907;53.640;10.050;2023-07-20T05:34:54;100702.88;;;26.98;37.81
76973;BME280;65907;53.640;10.050;2023-07-20T05:37:22;100712.78;;;26.96;37.94
76973;BME280;65907;53.640;10.050;2023-07-20T05:39:50;100710.97;;;26.97;37.86
76973;BME280;65907;53.640;10.050;2023-07-20T05:42:15;100712.31;;;26.93;38.06
76973;BME280;65907;53.640;10.050;2023-07-20T05:44:43;100708.66;;;27.02;38.01
76973;BME280;65907;53.640;10.050;2023-07-20T05:47:08;100714.75;;;27.02;37.90
76973;BME280;65907;53.640;10.050;2023-07-20T05:49:34;100715.91;;;27.00;38.05
76973;BME280;65907;53.640;10.050;2023-07-20T05:52:08;100721.03;;;27.01;38.03
76973;BME280;65907;53.640;10.050;2023-07-20T05:54:33;100715.41;;;26.96;38.17
76973;BME280;65907;53.640;10.050;2023-07-20T05:57:01;100721.03;;;27.01;38.04
76973;BME280;65907;53.640;10.050;2023-07-20T05:59:27;100708.84;;;27.00;38.07
76973;BME280;65907;53.640;10.050;2023-07-20T06:01:54;100715.09;;;26.99;37.92
76973;BME280;65907;53.640;10.050;2023-07-20T06:04:22;100713.44;;;26.98;38.15
76973;BME280;65907;53.640;10.050;2023-07-20T06:06:49;100712.63;;;26.98;38.23
76973;BME280;65907;53.640;10.050;2023-07-20T06:09:14;100711.94;;;27.04;37.92
76973;BME280;65907;53.640;10.050;2023-07-20T06:11:39;100720.69;;;27.04;37.90
76973;BME280;65907;53.640;10.050;2023-07-20T06:14:04;100715.88;;;27.08;37.90
76973;BME280;65907;53.640;10.050;2023-07-20T06:16:30;100716.06;;;27.07;37.92
76973;BME280;65907;53.640;10.050;2023-07-20T06:18:56;100716.22;;;27.05;38.17
76973;BME280;65907;53.640;10.050;2023-07-20T06:21:23;100717.41;;;27.02;38.02
76973;BME280;65907;53.640;10.050;2023-07-20T06:23:48;100718.22;;;27.03;38.12
76973;BME280;65907;53.640;10.050;2023-07-20T06:26:14;100713.78;;;27.03;38.02
76973;BME280;65907;53.640;10.050;2023-07-20T06:28:41;100718.22;;;27.03;37.91
76973;BME280;65907;53.640;10.050;2023-07-20T06:31:07;100724.31;;;27.03;38.34
76973;BME280;65907;53.640;10.050;2023-07-20T06:33:32;100721.34;;;27.07;38.16
76973;BME280;65907;53.640;10.050;2023-07-20T06:35:59;100727.44;;;27.07;38.02
76973;BME280;65907;53.640;10.050;2023-07-20T06:38:24;100739.31;;;27.11;38.24
76973;BME280;65907;53.640;10.050;2023-07-20T06:40:50;100742.97;;;27.02;38.08
76973;BME280;65907;53.640;10.050;2023-07-20T06:43:17;100747.25;;;27.03;38.04
76973;BME280;65907;53.640;10.050;2023-07-20T06:45:42;100746.91;;;27.06;38.08
76973;BME280;65907;53.640;10.050;2023-07-20T06:48:07;100746.25;;;27.12;37.92
76973;BME280;65907;53.640;10.050;2023-07-20T06:50:33;100750.50;;;27.22;37.82
76973;BME280;65907;53.640;10.050;2023-07-20T06:52:58;100752.91;;;27.40;37.54
76973;BME280;65907;53.640;10.050;2023-07-20T06:55:25;100752.22;;;27.54;37.36
76973;BME280;65907;53.640;10.050;2023-07-20T06:57:50;100751.84;;;27.66;36.87
76973;BME280;65907;53.640;10.050;2023-07-20T07:00:20;100754.88;;;27.54;37.17
76973;BME280;65907;53.640;10.050;2023-07-20T07:02:45;100754.22;;;27.52;37.39
76973;BME280;65907;53.640;10.050;2023-07-20T07:05:12;100763.16;;;27.51;37.30
76973;BME280;65907;53.640;10.050;2023-07-20T07:07:41;100753.41;;;27.43;37.47
76973;BME280;65907;53.640;10.050;2023-07-20T07:10:06;100753.41;;;27.43;37.64
76973;BME280;65907;53.640;10.050;2023-07-20T07:12:32;100753.41;;;27.43;37.75
76973;BME280;65907;53.640;10.050;2023-07-20T07:14:57;100755.53;;;27.56;37.27
76973;BME280;65907;53.640;10.050;2023-07-20T07:17:23;100752.41;;;27.44;37.79
76973;BME280;65907;53.640;10.050;2023-07-20T07:19:58;100753.75;;;27.40;37.73
76973;BME280;65907;53.640;10.050;2023-07-20T07:22:25;100750.09;;;27.41;37.37
76973;BME280;65907;53.640;10.050;2023-07-20T07:24:51;100753.56;;;27.42;37.58
76973;BME280;65907;53.640;10.050;2023-07-20T07:27:16;100753.88;;;27.55;37.39
76973;BME280;65907;53.640;10.050;2023-07-20T07:29:41;100757.53;;;27.54;37.39
76973;BME280;65907;53.640;10.050;2023-07-20T07:32:09;100753.88;;;27.55;37.32
76973;BME280;65907;53.640;10.050;2023-07-20T07:34:35;100755.13;;;27.68;37.21
76973;BME280;65907;53.640;10.050;2023-07-20T07:37:00;100755.81;;;27.61;37.24
76973;BME280;65907;53.640;10.050;2023-07-20T07:39:25;100756.47;;;27.63;37.30
76973;BME280;65907;53.640;10.050;2023-07-20T07:41:51;100761.09;;;27.70;37.17
76973;BME280;65907;53.640;10.050;2023-07-20T07:44:19;100764.69;;;27.77;37.05
76973;BME280;65907;53.640;10.050;2023-07-20T07:46:44;100766.47;;;27.85;37.17
76973;BME280;65907;53.640;10.050;2023-07-20T07:49:09;100764.81;;;27.84;37.09
76973;BME280;65907;53.640;10.050;2023-07-20T07:51:34;100773.94;;;27.73;37.26
76973;BME280;65907;53.640;10.050;2023-07-20T07:53:59;100774.47;;;27.68;37.23
76973;BME280;65907;53.640;10.050;2023-07-20T07:56:25;100775.97;;;27.62;37.47
76973;BME280;65907;53.640;10.050;2023-07-20T07:58:50;100772.97;;;27.66;37.34
76973;BME280;65907;53.640;10.050;2023-07-20T08:01:18;100774.50;;;27.60;37.62
76973;BME280;65907;53.640;10.050;2023-07-20T08:03:44;100782.53;;;27.75;37.04
76973;BME280;65907;53.640;10.050;2023-07-20T08:06:12;100768.97;;;27.78;37.30
76973;BME280;65907;53.640;10.050;2023-07-20T08:08:37;100790.25;;;27.85;37.13
76973;BME280;65907;53.640;10.050;2023-07-20T08:11:02;100781.53;;;27.76;37.14
76973;BME280;65907;53.640;10.050;2023-07-20T08:13:28;100785.50;;;27.72;37.22
76973;BME280;65907;53.640;10.050;2023-07-20T08:15:53;100780.88;;;27.74;37.51
76973;BME280;65907;53.640;10.050;2023-07-20T08:18:18;100785.31;;;27.82;37.10
76973;BME280;65907;53.640;10.050;2023-07-20T08:20:44;100777.47;;;27.88;37.30
76973;BME280;65907;53.640;10.050;2023-07-20T08:23:09;100782.59;;;27.90;37.11
76973;BME280;65907;53.640;10.050;2023-07-20T08:25:36;100782.03;;;28.03;36.98
76973;BME280;65907;53.640;10.050;2023-07-20T08:28:02;100778.47;;;27.96;37.07
76973;BME280;65907;53.640;10.050;2023-07-20T08:30:38;100777.16;;;27.91;37.20
76973;BME280;65907;53.640;10.050;2023-07-20T08:33:04;100781.44;;;27.93;37.14
76973;BME280;65907;53.640;10.050;2023-07-20T08:35:31;100780.66;;;27.84;37.32
76973;BME280;65907;53.640;10.050;2023-07-20T08:37:57;100782.97;;;27.79;37.35
76973;BME280;65907;53.640;10.050;2023-07-20T08:40:22;100790.75;;;27.80;37.32
76973;BME280;65907;53.640;10.050;2023-07-20T08:42:47;100797.53;;;27.83;37.33
76973;BME280;65907;53.640;10.050;2023-07-20T08:45:12;100793.53;;;27.87;37.05
76973;BME280;65907;53.640;10.050;2023-07-20T08:47:38;100791.97;;;28.01;37.02
76973;BME280;65907;53.640;10.050;2023-07-20T08:50:06;100791.13;;;28.00;36.97
76973;BME280;65907;53.640;10.050;2023-07-20T08:52:33;100795.00;;;27.89;37.14
76973;BME280;65907;53.640;10.050;2023-07-20T08:54:59;100794.63;;;28.01;37.10
76973;BME280;65907;53.640;10.050;2023-07-20T08:57:28;100787.38;;;27.95;37.05
76973;BME280;65907;53.640;10.050;2023-07-20T08:59:54;100783.91;;;27.94;37.07
76973;BME280;65907;53.640;10.050;2023-07-20T09:02:20;100789.59;;;27.83;37.44
76973;BME280;65907;53.640;10.050;2023-07-20T09:04:47;100793.22;;;27.82;37.33
76973;BME280;65907;53.640;10.050;2023-07-20T09:07:15;100790.84;;;27.95;36.82
76973;BME280;65907;53.640;10.050;2023-07-20T09:09:41;100785.75;;;27.94;37.11
76973;BME280;65907;53.640;10.050;2023-07-20T09:12:16;100785.75;;;27.94;36.79
76973;BME280;65907;53.640;10.050;2023-07-20T09:14:44;100777.59;;;28.03;36.73
76973;BME280;65907;53.640;10.050;2023-07-20T09:17:13;100780.41;;;28.02;36.96
76973;BME280;65907;53.640;10.050;2023-07-20T09:19:45;100780.47;;;27.94;37.13
76973;BME280;65907;53.640;10.050;2023-07-20T09:22:10;100778.97;;;27.91;36.89
76973;BME280;65907;53.640;10.050;2023-07-20T09:24:38;100780.75;;;27.99;36.93
76973;BME280;65907;53.640;10.050;2023-07-20T09:27:06;100787.38;;;27.95;37.06
76973;BME280;65907;53.640;10.050;2023-07-20T09:29:31;100778.28;;;27.97;36.98
76973;BME280;65907;53.640;10.050;2023-07-20T09:31:59;100781.09;;;27.96;36.90
76973;BME280;65907;53.640;10.050;2023-07-20T09:34:31;100783.34;;;28.07;36.90
76973;BME280;65907;53.640;10.050;2023-07-20T09:36:57;100785.69;;;28.02;36.88
76973;BME280;65907;53.640;10.050;2023-07-20T09:39:22;100784.25;;;27.91;36.85
76973;BME280;65907;53.640;10.050;2023-07-20T09:41:47;100788.84;;;27.97;36.83
76973;BME280;65907;53.640;10.050;2023-07-20T09:44:16;100787.75;;;27.91;36.91
76973;BME280;65907;53.640;10.050;2023-07-20T09:46:42;100790.47;;;27.98;36.66
76973;BME280;65907;53.640;10.050;2023-07-20T09:49:11;100785.38;;;27.97;36.78
76973;BME280;65907;53.640;10.050;2023-07-20T09:51:36;100780.41;;;28.02;36.57
76973;BME280;65907;53.640;10.050;2023-07-20T09:54:02;100785.03;;;28.00;36.65
76973;BME280;65907;53.640;10.050;2023-07-20T09:56:28;100789.97;;;28.03;36.91
76973;BME280;65907;53.640;10.050;2023-07-20T09:58:58;100782.09;;;27.95;36.79
76973;BME280;65907;53.640;10.050;2023-07-20T10:01:26;100783.31;;;27.84;37.00
76973;BME280;65907;53.640;10.050;2023-07-20T10:03:54;100785.41;;;27.88;37.01
76973;BME280;65907;53.640;10.050;2023-07-20T10:06:23;100788.19;;;27.95;37.02
76973;BME280;65907;53.640;10.050;2023-07-20T10:08:50;100780.09;;;27.97;36.88
76973;BME280;65907;53.640;10.050;2023-07-20T10:11:17;100782.41;;;28.00;36.91
76973;BME280;65907;53.640;10.050;2023-07-20T10:13:43;100782.91;;;27.95;36.92
76973;BME280;65907;53.640;10.050;2023-07-20T10:16:11;100778.97;;;27.91;36.96
76973;BME280;65907;53.640;10.050;2023-07-20T10:21:11;100786.19;;;27.97;36.70
76973;BME280;65907;53.640;10.050;2023-07-20T10:23:36;100784.75;;;27.95;36.79
76973;BME280;65907;53.640;10.050;2023-07-20T10:26:02;100780.63;;;27.92;36.81
76973;BME280;65907;53.640;10.050;2023-07-20T10:28:28;100785.25;;;27.90;36.63
76973;BME280;65907;53.640;10.050;2023-07-20T10:30:53;100787.75;;;27.91;36.81
76973;BME280;65907;53.640;10.050;2023-07-20T10:33:21;100783.09;;;27.94;36.58
76973;BME280;65907;53.640;10.050;2023-07-20T10:35:50;100775.81;;;27.96;36.66
76973;BME280;65907;53.640;10.050;2023-07-20T10:38:16;100777.97;;;27.92;36.74
76973;BME280;65907;53.640;10.050;2023-07-20T10:40:43;100777.16;;;27.91;36.67
76973;BME280;65907;53.640;10.050;2023-07-20T10:43:18;100767.47;;;27.84;36.82
76973;BME280;65907;53.640;10.050;2023-07-20T10:45:51;100765.81;;;27.83;36.77
76973;BME280;65907;53.640;10.050;2023-07-20T10:50:42;100779.31;;;27.88;36.77
76973;BME280;65907;53.640;10.050;2023-07-20T10:55:36;100782.34;;;27.76;37.18
76973;BME280;65907;53.640;10.050;2023-07-20T11:00:34;100777.88;;;27.77;36.90
76973;BME280;65907;53.640;10.050;2023-07-20T11:03:00;100781.81;;;27.81;36.84
76973;BME280;65907;53.640;10.050;2023-07-20T11:05:35;100773.91;;;27.81;36.76
76973;BME280;65907;53.640;10.050;2023-07-20T11:08:04;100782.53;;;27.67;36.96
76973;BME280;65907;53.640;10.050;2023-07-20T11:10:32;100786.50;;;27.71;36.92
76973;BME280;65907;53.640;10.050;2023-07-20T11:15:52;100784.53;;;27.65;37.04
76973;BME280;65907;53.640;10.050;2023-07-20T11:18:28;100789.81;;;27.73;36.97
76973;BME280;65907;53.640;10.050;2023-07-20T11:20:53;100791.09;;;27.77;36.83
76973;BME280;65907;53.640;10.050;2023-07-20T11:23:22;100783.13;;;27.85;36.66
76973;BME280;65907;53.640;10.050;2023-07-20T11:25:48;100788.75;;;27.82;36.77
76973;BME280;65907;53.640;10.050;2023-07-20T11:28:13;100787.63;;;27.76;36.63
76973;BME280;65907;53.640;10.050;2023-07-20T11:30:41;100790.47;;;27.67;36.90
76973;BME280;65907;53.640;10.050;2023-07-20T11:33:10;100796.59;;;27.67;36.87
76973;BME280;65907;53.640;10.050;2023-07-20T11:35:35;100787.66;;;27.68;36.92
76973;BME280;65907;53.640;10.050;2023-07-20T11:38:01;100791.47;;;27.66;36.95
76973;BME280;65907;53.640;10.050;2023-07-20T11:40:27;100795.44;;;27.70;36.83
76973;BME280;65907;53.640;10.050;2023-07-20T11:42:55;100780.91;;;27.66;36.81
76973;BME280;65907;53.640;10.050;2023-07-20T11:45:20;100790.97;;;27.70;36.70
76973;BME280;65907;53.640;10.050;2023-07-20T11:47:48;100782.19;;;27.78;36.67
76973;BME280;65907;53.640;10.050;2023-07-20T11:50:15;100777.41;;;27.73;36.63
76973;BME280;65907;53.640;10.050;2023-07-20T11:52:41;100775.25;;;27.77;36.44
76973;BME280;65907;53.640;10.050;2023-07-20T11:55:07;100764.19;;;27.73;36.78
76973;BME280;65907;53.640;10.050;2023-07-20T11:57:32;100760.38;;;27.76;36.78
76973;BME280;65907;53.640;10.050;2023-07-20T12:00:02;100758.03;;;27.81;36.42
76973;BME280;65907;53.640;10.050;2023-07-20T12:02:31;100769.13;;;27.76;36.57
76973;BME280;65907;53.640;10.050;2023-07-20T12:04:57;100768.34;;;27.68;36.81
76973;BME280;65907;53.640;10.050;2023-07-20T12:07:22;100767.47;;;27.84;36.53
76973;BME280;65907;53.640;10.050;2023-07-20T12:12:37;100763.69;;;27.78;36.61
76973;BME280;65907;53.640;10.050;2023-07-20T12:15:21;100771.16;;;27.66;36.72
76973;BME280;65907;53.640;10.050;2023-07-20T12:17:51;100770.97;;;27.68;36.67
76973;BME280;65907;53.640;10.050;2023-07-20T12:22:59;100767.53;;;27.67;36.69
76973;BME280;65907;53.640;10.050;2023-07-20T12:25:32;100767.69;;;27.66;36.73
76973;BME280;65907;53.640;10.050;2023-07-20T12:27:59;100764.38;;;27.72;36.76
76973;BME280;65907;53.640;10.050;2023-07-20T12:30:25;100764.53;;;27.70;36.48
76973;BME280;65907;53.640;10.050;2023-07-20T12:32:53;100768.34;;;27.68;36.66
76973;BME280;65907;53.640;10.050;2023-07-20T12:35:18;100757.19;;;27.89;36.24
76973;BME280;65907;53.640;10.050;2023-07-20T12:37:43;100766.31;;;27.78;36.71
76973;BME280;65907;53.640;10.050;2023-07-20T12:40:09;100746.88;;;27.71;36.66
76973;BME280;65907;53.640;10.050;2023-07-20T12:42:41;100746.53;;;27.74;36.69
76973;BME280;65907;53.640;10.050;2023-07-20T12:45:09;100748.53;;;27.72;36.26
76973;BME280;65907;53.640;10.050;2023-07-20T12:47:35;100747.19;;;27.76;36.57
76973;BME280;65907;53.640;10.050;2023-07-20T12:50:01;100745.06;;;27.71;36.49
76973;BME280;65907;53.640;10.050;2023-07-20T12:52:26;100740.25;;;27.75;36.54
76973;BME280;65907;53.640;10.050;2023-07-20T12:54:51;100742.19;;;27.81;36.48
76973;BME280;65907;53.640;10.050;2023-07-20T12:57:17;100745.69;;;27.73;36.73
76973;BME280;65907;53.640;10.050;2023-07-20T12:59:42;100745.25;;;27.70;36.72